sensor_id;sensor_type;location;lat;lon;timestamp;P1;durP1;ratioP1;P2;durP2;ratioP2
31686;SDS011;18285;51.330;4.946;2023-05-08T00:15:51;3.13;;;2.80;;
31686;SDS011;18285;51.330;4.946;2023-05-08T00:40:02;3.88;;;3.30;;
31686;SDS011;18285;51.330;4.946;2023-05-08T01:04:13;3.37;;;3.07;;
31686;SDS011;18285;51.330;4.946;2023-05-08T01:53:28;3.28;;;2.80;;
31686;SDS011;18285;51.330;4.946;2023-05-08T02:17:44;3.60;;;3.30;;
31686;SDS011;18285;51.330;4.946;2023-05-08T02:41:57;5.00;;;4.18;;
31686;SDS011;18285;51.330;4.946;2023-05-08T03:06:11;4.70;;;4.30;;
31686;SDS011;18285;51.330;4.946;2023-05-08T03:30:25;3.38;;;3.13;;
31686;SDS011;18285;51.330;4.946;2023-05-08T03:54:36;4.37;;;4.07;;
31686;SDS011;18285;51.330;4.946;2023-05-08T04:18:47;4.90;;;4.50;;
31686;SDS011;18285;51.330;4.946;2023-05-08T04:42:59;5.88;;;5.38;;
31686;SDS011;18285;51.330;4.946;2023-05-08T05:07:10;10.13;;;6.40;;
31686;SDS011;18285;51.330;4.946;2023-05-08T05:31:21;7.30;;;6.60;;
31686;SDS011;18285;51.330;4.946;2023-05-08T05:55:32;46.28;;;33.55;;
31686;SDS011;18285;51.330;4.946;2023-05-08T06:19:44;52.70;;;40.00;;
31686;SDS011;18285;51.330;4.946;2023-05-08T06:43:59;43.83;;;34.58;;
31686;SDS011;18285;51.330;4.946;2023-05-08T07:08:10;47.95;;;39.25;;
31686;SDS011;18285;51.330;4.946;2023-05-08T07:32:20;31.95;;;27.85;;
31686;SDS011;18285;51.330;4.946;2023-05-08T07:56:32;33.20;;;27.20;;
31686;SDS011;18285;51.330;4.946;2023-05-08T08:20:43;28.15;;;23.05;;
31686;SDS011;18285;51.330;4.946;2023-05-08T08:44:56;25.10;;;22.25;;
31686;SDS011;18285;51.330;4.946;2023-05-08T09:09:07;24.67;;;19.85;;
31686;SDS011;18285;51.330;4.946;2023-05-08T09:33:19;26.00;;;21.47;;
31686;SDS011;18285;51.330;4.946;2023-05-08T09:57:32;17.35;;;13.65;;
31686;SDS011;18285;51.330;4.946;2023-05-08T10:21:46;14.10;;;10.27;;
31686;SDS011;18285;51.330;4.946;2023-05-08T10:46:00;13.13;;;10.65;;
31686;SDS011;18285;51.330;4.946;2023-05-08T11:10:17;15.15;;;11.68;;
31686;SDS011;18285;51.330;4.946;2023-05-08T11:34:46;16.47;;;12.97;;
31686;SDS011;18285;51.330;4.946;2023-05-08T11:59:03;17.10;;;13.90;;
31686;SDS011;18285;51.330;4.946;2023-05-08T12:23:14;16.38;;;12.50;;
31686;SDS011;18285;51.330;4.946;2023-05-08T12:47:26;17.73;;;13.15;;
31686;SDS011;18285;51.330;4.946;2023-05-08T13:11:37;19.63;;;13.80;;
31686;SDS011;18285;51.330;4.946;2023-05-08T13:35:48;20.63;;;15.10;;
31686;SDS011;18285;51.330;4.946;2023-05-08T13:59:59;17.07;;;12.63;;
31686;SDS011;18285;51.330;4.946;2023-05-08T14:24:10;15.50;;;11.07;;
31686;SDS011;18285;51.330;4.946;2023-05-08T14:48:20;17.47;;;11.30;;
31686;SDS011;18285;51.330;4.946;2023-05-08T15:12:31;15.07;;;11.00;;
31686;SDS011;18285;51.330;4.946;2023-05-08T15:36:42;22.23;;;14.43;;
31686;SDS011;18285;51.330;4.946;2023-05-08T16:00:53;17.13;;;10.73;;
31686;SDS011;18285;51.330;4.946;2023-05-08T16:25:04;14.83;;;8.93;;
31686;SDS011;18285;51.330;4.946;2023-05-08T16:49:15;14.57;;;8.47;;
31686;SDS011;18285;51.330;4.946;2023-05-08T17:13:25;10.30;;;6.60;;
31686;SDS011;18285;51.330;4.946;2023-05-08T17:37:36;18.70;;;12.85;;
31686;SDS011;18285;51.330;4.946;2023-05-08T18:01:47;32.38;;;21.48;;
31686;SDS011;18285;51.330;4.946;2023-05-08T18:25:58;23.77;;;18.88;;
31686;SDS011;18285;51.330;4.946;2023-05-08T18:50:08;23.92;;;18.88;;
31686;SDS011;18285;51.330;4.946;2023-05-08T19:14:19;24.73;;;18.38;;
31686;SDS011;18285;51.330;4.946;2023-05-08T19:38:30;11.98;;;10.52;;
31686;SDS011;18285;51.330;4.946;2023-05-08T20:02:41;12.57;;;9.60;;
31686;SDS011;18285;51.330;4.946;2023-05-08T20:26:52;11.35;;;7.90;;
31686;SDS011;18285;51.330;4.946;2023-05-08T20:51:05;9.27;;;6.90;;
31686;SDS011;18285;51.330;4.946;2023-05-08T21:15:15;7.77;;;5.73;;
31686;SDS011;18285;51.330;4.946;2023-05-08T21:39:26;7.13;;;4.60;;
31686;SDS011;18285;51.330;4.946;2023-05-08T22:03:37;5.03;;;4.37;;
31686;SDS011;18285;51.330;4.946;2023-05-08T22:27:48;5.13;;;4.00;;
31686;SDS011;18285;51.330;4.946;2023-05-08T22:51:58;4.83;;;3.77;;
31686;SDS011;18285;51.330;4.946;2023-05-08T23:16:09;4.85;;;3.50;;
31686;SDS011;18285;51.330;4.946;2023-05-08T23:40:20;4.68;;;3.70;;
